Time,TemperatureF,DewpointF,PressureIn,WindDirection,WindDirectionDegrees,WindSpeedMPH,WindSpeedGustMPH,Humidity,HourlyPrecipIn,Conditions,Clouds,dailyrainin,SoftwareType,DateUTC
2013-05-13 00:01:00,40.7,32.0,30.11,NW,317,0.0,12.0,71,0.00,,,0.00,Wunderground v.1.15,2013-05-13 04:01:00,
2013-05-13 00:02:00,40.7,32.4,30.11,NW,317,0.0,12.0,72,0.00,,,0.00,Wunderground v.1.15,2013-05-13 04:02:00,
2013-05-13 00:05:00,40.6,32.3,30.11,NW,317,0.0,12.0,72,0.00,,,0.00,Wunderground v.1.15,2013-05-13 04:05:00,
2013-05-13 00:10:00,40.4,32.1,30.11,NW,317,0.0,12.0,72,0.00,,,0.00,Wunderground v.1.15,2013-05-13 04:10:00,
2013-05-13 00:11:00,40.4,32.1,30.11,NW,317,0.0,12.0,72,0.00,,,0.00,Wunderground v.1.15,2013-05-13 04:11:00,
2013-05-13 00:16:00,40.1,32.1,30.11,NW,317,0.0,12.0,73,0.00,,,0.00,Wunderground v.1.15,2013-05-13 04:16:00,
2013-05-13 00:21:00,39.8,31.8,30.11,NW,317,0.0,12.0,73,0.00,,,0.00,Wunderground v.1.15,2013-05-13 04:21:00,
2013-05-13 00:27:00,39.6,32.0,30.11,NW,326,0.0,12.0,74,0.00,,,0.00,Wunderground v.1.15,2013-05-13 04:27:00,
2013-05-13 00:32:00,39.6,31.7,30.10,NW,326,0.0,12.0,73,0.00,,,0.00,Wunderground v.1.15,2013-05-13 04:32:00,
2013-05-13 00:37:00,39.6,31.7,30.11,NW,326,0.0,12.0,73,0.00,,,0.00,Wunderground v.1.15,2013-05-13 04:37:00,
2013-05-13 00:42:00,39.5,31.6,30.11,NW,326,0.0,12.0,73,0.00,,,0.00,Wunderground v.1.15,2013-05-13 04:42:00,
2013-05-13 00:48:00,39.5,31.6,30.11,NW,326,0.0,12.0,73,0.00,,,0.00,Wunderground v.1.15,2013-05-13 04:48:00,
2013-05-13 00:53:00,39.3,31.4,30.11,NW,326,0.0,12.0,73,0.00,,,0.00,Wunderground v.1.15,2013-05-13 04:53:00,
2013-05-13 00:58:00,39.2,31.3,30.11,NW,326,0.0,12.0,73,0.00,,,0.00,Wunderground v.1.15,2013-05-13 04:58:00,
2013-05-13 01:03:00,39.1,31.2,30.11,NW,326,0.0,12.0,73,0.00,,,0.00,Wunderground v.1.15,2013-05-13 05:03:00,
2013-05-13 01:09:00,38.7,31.1,30.11,NW,326,0.0,12.0,74,0.00,,,0.00,Wunderground v.1.15,2013-05-13 05:09:00,
2013-05-13 01:14:00,38.4,30.8,30.11,NW,326,0.0,12.0,74,0.00,,,0.00,Wunderground v.1.15,2013-05-13 05:14:00,
2013-05-13 01:19:00,38.0,30.8,30.11,NW,326,0.0,12.0,75,0.00,,,0.00,Wunderground v.1.15,2013-05-13 05:19:00,
2013-05-13 01:25:00,37.6,30.7,30.11,NW,326,0.0,12.0,76,0.00,,,0.00,Wunderground v.1.15,2013-05-13 05:25:00,
2013-05-13 01:30:00,37.3,30.7,30.11,NW,326,0.0,12.0,77,0.00,,,0.00,Wunderground v.1.15,2013-05-13 05:30:00,
2013-05-13 01:35:00,37.1,30.6,30.11,NW,326,0.0,12.0,77,0.00,,,0.00,Wunderground v.1.15,2013-05-13 05:35:00,
2013-05-13 01:41:00,36.9,30.7,30.11,NW,326,0.0,12.0,78,0.00,,,0.00,Wunderground v.1.15,2013-05-13 05:41:00,
2013-05-13 01:46:00,36.8,30.6,30.11,NW,326,0.0,12.0,78,0.00,,,0.00,Wunderground v.1.15,2013-05-13 05:46:00,
2013-05-13 01:51:00,36.6,30.7,30.11,NW,326,0.0,12.0,79,0.00,,,0.00,Wunderground v.1.15,2013-05-13 05:51:00,
2013-05-13 01:56:00,36.6,31.0,30.11,NW,326,0.0,12.0,80,0.00,,,0.00,Wunderground v.1.15,2013-05-13 05:56:00,
2013-05-13 02:02:00,36.6,31.0,30.11,NW,326,0.0,12.0,80,0.00,,,0.00,Wunderground v.1.15,2013-05-13 06:02:00,
2013-05-13 02:07:00,36.5,31.2,30.11,NW,326,0.0,12.0,81,0.00,,,0.00,Wunderground v.1.15,2013-05-13 06:07:00,
2013-05-13 02:12:00,36.4,31.1,30.11,NW,326,0.0,12.0,81,0.00,,,0.00,Wunderground v.1.15,2013-05-13 06:12:00,
2013-05-13 02:17:00,36.3,31.0,30.11,NW,326,0.0,12.0,81,0.00,,,0.00,Wunderground v.1.15,2013-05-13 06:17:00,
2013-05-13 02:23:00,36.2,31.2,30.10,NW,326,0.0,12.0,82,0.00,,,0.00,Wunderground v.1.15,2013-05-13 06:23:00,
2013-05-13 02:28:00,36.2,31.2,30.11,NW,326,0.0,12.0,82,0.00,,,0.00,Wunderground v.1.15,2013-05-13 06:28:00,
2013-05-13 02:33:00,36.4,31.7,30.11,NW,326,0.0,12.0,83,0.00,,,0.00,Wunderground v.1.15,2013-05-13 06:33:00,
2013-05-13 02:39:00,36.5,32.1,30.10,NW,326,0.0,12.0,84,0.00,,,0.00,Wunderground v.1.15,2013-05-13 06:39:00,
2013-05-13 02:45:00,36.6,32.2,30.10,NW,326,0.0,12.0,84,0.00,,,0.00,Wunderground v.1.15,2013-05-13 06:45:00,
2013-05-13 02:50:00,36.7,32.3,30.10,NW,326,0.0,12.0,84,0.00,,,0.00,Wunderground v.1.15,2013-05-13 06:50:00,
2013-05-13 02:55:00,36.8,32.4,30.11,NW,326,0.0,12.0,84,0.00,,,0.00,Wunderground v.1.15,2013-05-13 06:55:00,
2013-05-13 03:01:00,36.9,32.5,30.10,NW,326,0.0,12.0,84,0.00,,,0.00,Wunderground v.1.15,2013-05-13 07:01:00,
2013-05-13 03:07:00,37.0,32.6,30.10,NW,326,0.0,12.0,84,0.00,,,0.00,Wunderground v.1.15,2013-05-13 07:07:00,
2013-05-13 03:12:00,37.1,33.0,30.10,NW,326,0.0,12.0,85,0.00,,,0.00,Wunderground v.1.15,2013-05-13 07:12:00,
2013-05-13 03:17:00,37.4,33.0,30.10,NW,326,0.0,12.0,84,0.00,,,0.00,Wunderground v.1.15,2013-05-13 07:17:00,
2013-05-13 03:23:00,37.7,33.3,30.10,NW,326,0.0,12.0,84,0.00,,,0.00,Wunderground v.1.15,2013-05-13 07:23:00,
2013-05-13 03:29:00,37.9,33.2,30.10,NW,326,0.0,12.0,83,0.00,,,0.00,Wunderground v.1.15,2013-05-13 07:29:00,
2013-05-13 03:34:00,38.0,33.0,30.10,NW,326,0.0,12.0,82,0.00,,,0.00,Wunderground v.1.15,2013-05-13 07:34:00,
2013-05-13 03:39:00,38.2,33.2,30.10,NW,326,0.0,12.0,82,0.00,,,0.00,Wunderground v.1.15,2013-05-13 07:39:00,
2013-05-13 03:45:00,38.4,33.1,30.10,NW,326,0.0,12.0,81,0.00,,,0.00,Wunderground v.1.15,2013-05-13 07:45:00,
2013-05-13 03:51:00,38.5,33.2,30.10,NW,326,0.0,12.0,81,0.00,,,0.00,Wunderground v.1.15,2013-05-13 07:51:00,
2013-05-13 03:56:00,38.4,33.1,30.10,NW,326,0.0,12.0,81,0.00,,,0.00,Wunderground v.1.15,2013-05-13 07:56:00,
2013-05-13 04:01:00,38.3,32.7,30.10,NW,326,0.0,12.0,80,0.00,,,0.00,Wunderground v.1.15,2013-05-13 08:01:00,
2013-05-13 04:07:00,38.2,32.9,30.10,NW,326,0.0,12.0,81,0.00,,,0.00,Wunderground v.1.15,2013-05-13 08:07:00,
2013-05-13 04:13:00,38.0,32.7,30.10,NW,326,0.0,12.0,81,0.00,,,0.00,Wunderground v.1.15,2013-05-13 08:13:00,
2013-05-13 04:18:00,38.0,33.3,30.10,NW,326,0.0,12.0,83,0.00,,,0.00,Wunderground v.1.15,2013-05-13 08:18:00,
2013-05-13 04:23:00,37.9,33.2,30.10,NW,326,0.0,12.0,83,0.00,,,0.00,Wunderground v.1.15,2013-05-13 08:23:00,
2013-05-13 04:29:00,37.6,32.9,30.09,NW,326,0.0,12.0,83,0.00,,,0.00,Wunderground v.1.15,2013-05-13 08:29:00,
2013-05-13 04:34:00,37.4,32.7,30.09,NW,326,0.0,12.0,83,0.00,,,0.00,Wunderground v.1.15,2013-05-13 08:34:00,
2013-05-13 04:39:00,37.3,32.9,30.10,NW,326,0.0,12.0,84,0.00,,,0.00,Wunderground v.1.15,2013-05-13 08:39:00,
2013-05-13 04:45:00,37.1,32.7,30.09,NW,326,0.0,12.0,84,0.00,,,0.00,Wunderground v.1.15,2013-05-13 08:45:00,
2013-05-13 04:50:00,37.0,32.6,30.09,NW,326,0.0,12.0,84,0.00,,,0.00,Wunderground v.1.15,2013-05-13 08:50:00,
2013-05-13 04:55:00,36.9,32.8,30.09,NW,326,0.0,12.0,85,0.00,,,0.00,Wunderground v.1.15,2013-05-13 08:55:00,
2013-05-13 05:00:00,37.0,33.2,30.09,NW,326,0.0,12.0,86,0.00,,,0.00,Wunderground v.1.15,2013-05-13 09:00:00,
2013-05-13 05:06:00,37.1,33.3,30.09,NW,326,0.0,12.0,86,0.00,,,0.00,Wunderground v.1.15,2013-05-13 09:06:00,
2013-05-13 05:11:00,37.1,33.3,30.09,NW,326,0.0,12.0,86,0.00,,,0.00,Wunderground v.1.15,2013-05-13 09:11:00,
2013-05-13 05:16:00,36.9,33.1,30.09,NW,326,0.0,12.0,86,0.00,,,0.00,Wunderground v.1.15,2013-05-13 09:16:00,
2013-05-13 05:22:00,36.7,34.6,30.09,NW,326,0.0,12.0,92,0.00,,,0.00,Wunderground v.1.15,2013-05-13 09:22:00,
2013-05-13 05:27:00,36.4,32.9,30.09,NW,326,0.0,12.0,87,0.00,,,0.00,Wunderground v.1.15,2013-05-13 09:27:00,
2013-05-13 05:32:00,36.2,32.7,30.09,NW,326,0.0,12.0,87,0.00,,,0.00,Wunderground v.1.15,2013-05-13 09:32:00,
2013-05-13 05:38:00,36.0,32.8,30.09,NW,326,0.0,12.0,88,0.00,,,0.00,Wunderground v.1.15,2013-05-13 09:38:00,
2013-05-13 05:43:00,35.7,32.5,30.09,NW,326,0.0,12.0,88,0.00,,,0.00,Wunderground v.1.15,2013-05-13 09:43:00,
2013-05-13 05:48:00,35.5,32.3,30.09,NW,326,0.0,12.0,88,0.00,,,0.00,Wunderground v.1.15,2013-05-13 09:48:00,
2013-05-13 05:53:00,35.3,32.1,30.09,NW,326,0.0,12.0,88,0.00,,,0.00,Wunderground v.1.15,2013-05-13 09:53:00,
2013-05-13 05:59:00,35.0,32.1,30.10,NW,326,0.0,12.0,89,0.00,,,0.00,Wunderground v.1.15,2013-05-13 09:59:00,
2013-05-13 06:04:00,34.8,31.9,30.10,NW,326,0.0,12.0,89,0.00,,,0.00,Wunderground v.1.15,2013-05-13 10:04:00,
2013-05-13 06:09:00,34.6,31.7,30.10,NW,326,0.0,12.0,89,0.00,,,0.00,Wunderground v.1.15,2013-05-13 10:09:00,
2013-05-13 06:15:00,34.4,31.5,30.10,NW,326,0.0,12.0,89,0.00,,,0.00,Wunderground v.1.15,2013-05-13 10:15:00,
2013-05-13 06:20:00,34.4,31.5,30.10,NW,326,0.0,12.0,89,0.00,,,0.00,Wunderground v.1.15,2013-05-13 10:20:00,
2013-05-13 06:25:00,34.2,31.3,30.11,NW,326,0.0,12.0,89,0.00,,,0.00,Wunderground v.1.15,2013-05-13 10:25:00,
2013-05-13 06:30:00,34.0,31.4,30.11,NW,326,0.0,12.0,90,0.00,,,0.00,Wunderground v.1.15,2013-05-13 10:30:00,
2013-05-13 06:36:00,33.8,31.2,30.11,NW,326,0.0,12.0,90,0.00,,,0.00,Wunderground v.1.15,2013-05-13 10:36:00,
2013-05-13 06:41:00,33.6,31.0,30.11,NW,326,0.0,12.0,90,0.00,,,0.00,Wunderground v.1.15,2013-05-13 10:41:00,
2013-05-13 06:46:00,33.7,31.1,30.11,NW,326,0.0,12.0,90,0.00,,,0.00,Wunderground v.1.15,2013-05-13 10:46:00,
2013-05-13 06:51:00,33.6,31.0,30.11,NW,326,0.0,12.0,90,0.00,,,0.00,Wunderground v.1.15,2013-05-13 10:51:00,
2013-05-13 06:56:00,33.6,31.0,30.11,NW,326,0.0,12.0,90,0.00,,,0.00,Wunderground v.1.15,2013-05-13 10:56:00,
2013-05-13 07:02:00,33.6,31.3,30.12,NW,326,0.0,12.0,91,0.00,,,0.00,Wunderground v.1.15,2013-05-13 11:02:00,
2013-05-13 07:07:00,33.5,31.2,30.12,NW,326,0.0,12.0,91,0.00,,,0.00,Wunderground v.1.15,2013-05-13 11:07:00,
2013-05-13 07:12:00,33.5,31.2,30.12,NW,326,0.0,12.0,91,0.00,,,0.00,Wunderground v.1.15,2013-05-13 11:12:00,
2013-05-13 07:18:00,33.5,31.2,30.12,NW,326,0.0,12.0,91,0.00,,,0.00,Wunderground v.1.15,2013-05-13 11:18:00,
2013-05-13 07:23:00,33.5,31.2,30.13,NW,326,0.0,12.0,91,0.00,,,0.00,Wunderground v.1.15,2013-05-13 11:23:00,
2013-05-13 07:28:00,33.6,31.3,30.13,NW,326,0.0,12.0,91,0.00,,,0.00,Wunderground v.1.15,2013-05-13 11:28:00,
2013-05-13 07:33:00,33.8,31.7,30.13,NW,326,0.0,12.0,92,0.00,,,0.00,Wunderground v.1.15,2013-05-13 11:33:00,
2013-05-13 07:39:00,34.2,32.1,30.13,NW,326,0.0,12.0,92,0.00,,,0.00,Wunderground v.1.15,2013-05-13 11:39:00,
2013-05-13 07:44:00,34.7,32.6,30.13,NW,326,0.0,12.0,92,0.00,,,0.00,Wunderground v.1.15,2013-05-13 11:44:00,
2013-05-13 07:49:00,35.3,33.2,30.13,NW,325,0.0,12.0,92,0.00,,,0.00,Wunderground v.1.15,2013-05-13 11:49:00,
2013-05-13 07:54:00,35.8,33.7,30.13,NW,325,0.0,12.0,92,0.00,,,0.00,Wunderground v.1.15,2013-05-13 11:54:00,
2013-05-13 08:00:00,36.5,34.4,30.13,NW,319,0.0,12.0,92,0.00,,,0.00,Wunderground v.1.15,2013-05-13 12:00:00,
2013-05-13 08:05:00,37.1,34.2,30.14,NW,311,0.0,12.0,89,0.00,,,0.00,Wunderground v.1.15,2013-05-13 12:05:00,
2013-05-13 08:10:00,38.3,34.2,30.14,NW,312,0.0,12.0,85,0.00,,,0.00,Wunderground v.1.15,2013-05-13 12:10:00,
2013-05-13 08:16:00,39.8,33.8,30.14,NW,312,0.0,12.0,79,0.00,,,0.00,Wunderground v.1.15,2013-05-13 12:16:00,
2013-05-13 08:21:00,41.1,33.1,30.14,NW,321,1.0,12.0,73,0.00,,,0.00,Wunderground v.1.15,2013-05-13 12:21:00,
2013-05-13 08:26:00,42.2,32.4,30.15,NNW,327,2.0,12.0,68,0.00,,,0.00,Wunderground v.1.15,2013-05-13 12:26:00,
2013-05-13 08:31:00,43.0,32.4,30.15,WNW,300,2.0,12.0,66,0.00,,,0.00,Wunderground v.1.15,2013-05-13 12:31:00,
2013-05-13 08:36:00,43.8,32.8,30.15,WNW,299,1.0,12.0,65,0.00,,,0.00,Wunderground v.1.15,2013-05-13 12:36:00,
2013-05-13 08:42:00,44.4,31.0,30.16,NNW,338,2.0,12.0,59,0.00,,,0.00,Wunderground v.1.15,2013-05-13 12:42:00,
2013-05-13 08:47:00,44.6,31.1,30.16,West,281,3.0,12.0,59,0.00,,,0.00,Wunderground v.1.15,2013-05-13 12:47:00,
2013-05-13 08:52:00,44.9,31.0,30.16,NNW,338,2.0,12.0,58,0.00,,,0.00,Wunderground v.1.15,2013-05-13 12:52:00,
2013-05-13 08:58:00,45.2,30.9,30.16,NNW,342,2.0,12.0,57,0.00,,,0.00,Wunderground v.1.15,2013-05-13 12:58:00,
2013-05-13 09:03:00,45.5,30.7,30.16,NNW,342,1.0,12.0,56,0.00,,,0.00,Wunderground v.1.15,2013-05-13 13:03:00,
2013-05-13 09:08:00,46.1,31.7,30.17,WSW,246,0.0,12.0,57,0.00,,,0.00,Wunderground v.1.15,2013-05-13 13:08:00,
2013-05-13 09:13:00,46.6,31.7,30.16,WNW,297,1.0,12.0,56,0.00,,,0.00,Wunderground v.1.15,2013-05-13 13:13:00,
2013-05-13 09:19:00,46.9,31.6,30.17,West,267,0.0,12.0,55,0.00,,,0.00,Wunderground v.1.15,2013-05-13 13:19:00,
2013-05-13 09:24:00,47.2,30.9,30.16,WNW,300,1.0,12.0,53,0.00,,,0.00,Wunderground v.1.15,2013-05-13 13:24:00,
2013-05-13 09:29:00,47.3,32.8,30.17,NW,317,1.0,12.0,57,0.00,,,0.00,Wunderground v.1.15,2013-05-13 13:29:00,
2013-05-13 09:34:00,47.5,32.1,30.17,NW,320,1.0,12.0,55,0.00,,,0.00,Wunderground v.1.15,2013-05-13 13:34:00,
2013-05-13 09:40:00,47.8,32.4,30.17,NW,320,1.0,1.0,55,0.00,,,0.00,Wunderground v.1.15,2013-05-13 13:40:00,
2013-05-13 09:45:00,48.1,32.7,30.17,NW,321,2.0,12.0,55,0.00,,,0.00,Wunderground v.1.15,2013-05-13 13:45:00,
2013-05-13 09:50:00,47.8,32.9,30.17,NNW,342,4.0,12.0,56,0.00,,,0.00,Wunderground v.1.15,2013-05-13 13:50:00,
2013-05-13 09:55:00,47.7,32.8,30.17,NW,304,6.0,12.0,56,0.00,,,0.00,Wunderground v.1.15,2013-05-13 13:55:00,
2013-05-13 10:01:00,47.9,32.9,30.17,NNE,17,3.0,5.0,56,0.00,,,0.00,Wunderground v.1.15,2013-05-13 14:01:00,
2013-05-13 10:06:00,48.1,33.6,30.17,WNW,282,3.0,12.0,57,0.00,,,0.00,Wunderground v.1.15,2013-05-13 14:06:00,
2013-05-13 10:11:00,48.0,33.0,30.17,NNW,348,3.0,12.0,56,0.00,,,0.00,Wunderground v.1.15,2013-05-13 14:11:00,
2013-05-13 10:17:00,47.8,33.3,30.17,North,355,3.0,12.0,57,0.00,,,0.00,Wunderground v.1.15,2013-05-13 14:17:00,
2013-05-13 10:22:00,47.7,32.3,30.18,NNW,329,3.0,12.0,55,0.00,,,0.00,Wunderground v.1.15,2013-05-13 14:22:00,
2013-05-13 10:27:00,47.8,33.7,30.18,NW,317,3.0,12.0,58,0.00,,,0.00,Wunderground v.1.15,2013-05-13 14:27:00,
2013-05-13 10:32:00,48.0,33.5,30.18,NNW,329,2.0,12.0,57,0.00,,,0.00,Wunderground v.1.15,2013-05-13 14:32:00,
2013-05-13 10:38:00,48.5,33.1,30.18,West,272,3.0,12.0,55,0.00,,,0.00,Wunderground v.1.15,2013-05-13 14:38:00,
2013-05-13 10:43:00,48.7,33.2,30.18,WNW,298,2.0,12.0,55,0.00,,,0.00,Wunderground v.1.15,2013-05-13 14:43:00,
2013-05-13 10:48:00,48.4,32.5,30.18,NW,320,3.0,12.0,54,0.00,,,0.00,Wunderground v.1.15,2013-05-13 14:48:00,
2013-05-13 10:53:00,47.9,32.5,30.18,NW,319,4.0,12.0,55,0.00,,,0.00,Wunderground v.1.15,2013-05-13 14:53:00,
2013-05-13 10:59:00,48.2,35.0,30.18,NW,306,3.0,12.0,60,0.00,,,0.00,Wunderground v.1.15,2013-05-13 14:59:00,
2013-05-13 11:04:00,48.7,35.0,30.18,NNE,26,1.0,12.0,59,0.00,,,0.00,Wunderground v.1.15,2013-05-13 15:04:00,
2013-05-13 11:09:00,49.2,34.2,30.18,NNW,335,2.0,12.0,56,0.00,,,0.00,Wunderground v.1.15,2013-05-13 15:09:00,
2013-05-13 11:15:00,49.2,34.2,30.19,NW,321,4.0,12.0,56,0.00,,,0.00,Wunderground v.1.15,2013-05-13 15:15:00,
2013-05-13 11:20:00,48.7,31.8,30.19,NW,317,4.0,4.0,52,0.00,,,0.00,Wunderground v.1.15,2013-05-13 15:20:00,
2013-05-13 11:25:00,48.4,32.5,30.19,NNE,13,2.0,12.0,54,0.00,,,0.00,Wunderground v.1.15,2013-05-13 15:25:00,
2013-05-13 11:30:00,47.7,32.8,30.19,NNE,13,2.0,12.0,56,0.00,,,0.00,Wunderground v.1.15,2013-05-13 15:30:00,
2013-05-13 11:36:00,47.9,35.1,30.18,NNE,20,2.0,12.0,61,0.00,,,0.00,Wunderground v.1.15,2013-05-13 15:36:00,
2013-05-13 11:41:00,49.1,34.9,30.18,NNW,344,1.0,12.0,58,0.00,,,0.00,Wunderground v.1.15,2013-05-13 15:41:00,
2013-05-13 11:46:00,49.6,34.5,30.18,NNE,32,2.0,12.0,56,0.00,,,0.00,Wunderground v.1.15,2013-05-13 15:46:00,
2013-05-13 11:51:00,49.4,33.4,30.18,East,98,1.0,12.0,54,0.00,,,0.00,Wunderground v.1.15,2013-05-13 15:51:00,
2013-05-13 11:56:00,49.8,33.3,30.18,ENE,57,1.0,12.0,53,0.00,,,0.00,Wunderground v.1.15,2013-05-13 15:56:00,
2013-05-13 12:02:00,50.4,33.9,30.18,East,82,1.0,12.0,53,0.00,,,0.00,Wunderground v.1.15,2013-05-13 16:02:00,
2013-05-13 12:08:00,50.4,34.4,30.18,SW,215,1.0,12.0,54,0.00,,,0.00,Wunderground v.1.15,2013-05-13 16:08:00,
2013-05-13 12:14:00,50.7,34.6,30.18,WNW,302,2.0,12.0,54,0.00,,,0.00,Wunderground v.1.15,2013-05-13 16:14:00,
2013-05-13 12:19:00,50.6,34.6,30.18,WNW,286,1.0,12.0,54,0.00,,,0.00,Wunderground v.1.15,2013-05-13 16:19:00,
2013-05-13 12:24:00,51.1,36.8,30.17,WSW,242,1.0,12.0,58,0.00,,,0.00,Wunderground v.1.15,2013-05-13 16:24:00,
2013-05-13 12:29:00,51.9,34.3,30.17,West,260,2.0,12.0,51,0.00,,,0.00,Wunderground v.1.15,2013-05-13 16:29:00,
2013-05-13 12:35:00,52.0,34.9,30.17,WSW,237,4.0,12.0,52,0.00,,,0.00,Wunderground v.1.15,2013-05-13 16:35:00,
2013-05-13 12:40:00,51.9,34.3,30.17,SW,230,4.0,4.0,51,0.00,,,0.00,Wunderground v.1.15,2013-05-13 16:40:00,
2013-05-13 12:45:00,51.7,34.6,30.17,West,279,3.0,12.0,52,0.00,,,0.00,Wunderground v.1.15,2013-05-13 16:45:00,
2013-05-13 12:50:00,51.9,35.8,30.17,WNW,287,3.0,12.0,54,0.00,,,0.00,Wunderground v.1.15,2013-05-13 16:50:00,
2013-05-13 12:56:00,51.8,35.2,30.17,West,275,2.0,12.0,53,0.00,,,0.00,Wunderground v.1.15,2013-05-13 16:56:00,
2013-05-13 13:01:00,51.6,35.0,30.17,WNW,287,2.0,3.0,53,0.00,,,0.00,Wunderground v.1.15,2013-05-13 17:01:00,
2013-05-13 13:06:00,51.3,33.8,30.17,WNW,283,2.0,12.0,51,0.00,,,0.00,Wunderground v.1.15,2013-05-13 17:06:00,
2013-05-13 13:12:00,50.9,33.4,30.17,SW,234,2.0,12.0,51,0.00,,,0.00,Wunderground v.1.15,2013-05-13 17:12:00,
2013-05-13 13:17:00,51.0,33.5,30.16,SSW,205,2.0,12.0,51,0.00,,,0.00,Wunderground v.1.15,2013-05-13 17:17:00,
2013-05-13 13:22:00,51.5,34.9,30.17,NW,312,2.0,12.0,53,0.00,,,0.00,Wunderground v.1.15,2013-05-13 17:22:00,
2013-05-13 13:27:00,51.7,34.1,30.16,West,275,2.0,12.0,51,0.00,,,0.00,Wunderground v.1.15,2013-05-13 17:27:00,
2013-05-13 13:33:00,51.5,34.0,30.16,West,277,1.0,12.0,51,0.00,,,0.00,Wunderground v.1.15,2013-05-13 17:33:00,
2013-05-13 13:38:00,51.3,34.7,30.16,WSW,251,1.0,12.0,53,0.00,,,0.00,Wunderground v.1.15,2013-05-13 17:38:00,
2013-05-13 13:43:00,51.3,34.7,30.16,WSW,250,2.0,12.0,53,0.00,,,0.00,Wunderground v.1.15,2013-05-13 17:43:00,
2013-05-13 13:49:00,52.4,35.8,30.16,NW,311,3.0,12.0,53,0.00,,,0.00,Wunderground v.1.15,2013-05-13 17:49:00,
2013-05-13 13:55:00,53.5,35.8,30.16,NNE,29,5.0,12.0,51,0.00,,,0.00,Wunderground v.1.15,2013-05-13 17:55:00,
2013-05-13 14:00:00,53.2,34.0,30.16,WNW,287,4.0,4.0,48,0.00,,,0.00,Wunderground v.1.15,2013-05-13 18:00:00,
2013-05-13 14:05:00,53.0,35.8,30.15,WNW,284,4.0,12.0,52,0.00,,,0.00,Wunderground v.1.15,2013-05-13 18:05:00,
2013-05-13 14:12:00,54.4,36.1,30.15,NNW,333,5.0,12.0,50,0.00,,,0.00,Wunderground v.1.15,2013-05-13 18:12:00,
2013-05-13 14:17:00,54.3,35.0,30.15,WSW,246,5.0,12.0,48,0.00,,,0.00,Wunderground v.1.15,2013-05-13 18:17:00,
2013-05-13 14:22:00,53.9,34.6,30.15,WNW,295,4.0,12.0,48,0.00,,,0.00,Wunderground v.1.15,2013-05-13 18:22:00,
2013-05-13 14:28:00,53.2,35.0,30.15,WNW,288,4.0,12.0,50,0.00,,,0.00,Wunderground v.1.15,2013-05-13 18:28:00,
2013-05-13 14:33:00,53.3,34.1,30.15,NW,324,4.0,12.0,48,0.00,,,0.00,Wunderground v.1.15,2013-05-13 18:33:00,
2013-05-13 14:38:00,53.9,36.2,30.15,WNW,294,3.0,12.0,51,0.00,,,0.00,Wunderground v.1.15,2013-05-13 18:38:00,
2013-05-13 14:43:00,53.2,35.0,30.15,NNW,340,3.0,12.0,50,0.00,,,0.00,Wunderground v.1.15,2013-05-13 18:43:00,
2013-05-13 14:49:00,52.7,35.6,30.15,NNE,16,3.0,12.0,52,0.00,,,0.00,Wunderground v.1.15,2013-05-13 18:49:00,
2013-05-13 14:54:00,53.3,36.1,30.15,North,5,3.0,12.0,52,0.00,,,0.00,Wunderground v.1.15,2013-05-13 18:54:00,
2013-05-13 14:59:00,53.3,35.1,30.15,North,349,4.0,12.0,50,0.00,,,0.00,Wunderground v.1.15,2013-05-13 18:59:00,
2013-05-13 15:04:00,52.9,35.7,30.15,NNW,336,5.0,12.0,52,0.00,,,0.00,Wunderground v.1.15,2013-05-13 19:04:00,
2013-05-13 15:10:00,52.3,34.2,30.16,NNE,24,4.0,4.0,50,0.00,,,0.00,Wunderground v.1.15,2013-05-13 19:10:00,
2013-05-13 15:15:00,51.7,34.6,30.15,NNW,336,4.0,12.0,52,0.00,,,0.00,Wunderground v.1.15,2013-05-13 19:15:00,
2013-05-13 15:20:00,51.8,36.6,30.15,NE,42,4.0,4.0,56,0.00,,,0.00,Wunderground v.1.15,2013-05-13 19:20:00,
2013-05-13 15:26:00,53.1,36.4,30.15,NW,318,3.0,12.0,53,0.00,,,0.00,Wunderground v.1.15,2013-05-13 19:26:00,
2013-05-13 15:31:00,53.8,38.0,30.15,NNE,13,3.0,12.0,55,0.00,,,0.00,Wunderground v.1.15,2013-05-13 19:31:00,
2013-05-13 15:36:00,55.0,36.2,30.14,WNW,286,3.0,12.0,49,0.00,,,0.00,Wunderground v.1.15,2013-05-13 19:36:00,
2013-05-13 15:42:00,55.4,36.0,30.14,West,269,3.0,12.0,48,0.00,,,0.00,Wunderground v.1.15,2013-05-13 19:42:00,
2013-05-13 15:47:00,54.7,35.9,30.14,WNW,296,4.0,12.0,49,0.00,,,0.00,Wunderground v.1.15,2013-05-13 19:47:00,
2013-05-13 15:52:00,54.1,34.8,30.14,NW,326,5.0,12.0,48,0.00,,,0.00,Wunderground v.1.15,2013-05-13 19:52:00,
2013-05-13 15:57:00,53.7,35.0,30.14,NNW,329,4.0,12.0,49,0.00,,,0.00,Wunderground v.1.15,2013-05-13 19:57:00,
2013-05-13 16:03:00,53.5,34.3,30.14,NW,306,5.0,12.0,48,0.00,,,0.00,Wunderground v.1.15,2013-05-13 20:03:00,
2013-05-13 16:08:00,53.8,34.0,30.14,West,279,5.0,12.0,47,0.00,,,0.00,Wunderground v.1.15,2013-05-13 20:08:00,
2013-05-13 16:13:00,53.9,36.2,30.14,NNE,12,4.0,12.0,51,0.00,,,0.00,Wunderground v.1.15,2013-05-13 20:13:00,
2013-05-13 16:18:00,54.2,37.4,30.14,NNW,331,4.0,12.0,53,0.00,,,0.00,Wunderground v.1.15,2013-05-13 20:18:00,
2013-05-13 16:24:00,55.3,37.0,30.13,NNW,339,6.0,12.0,50,0.00,,,0.00,Wunderground v.1.15,2013-05-13 20:24:00,
2013-05-13 16:29:00,55.5,36.1,30.13,WSW,237,5.0,12.0,48,0.00,,,0.00,Wunderground v.1.15,2013-05-13 20:29:00,
2013-05-13 16:34:00,55.3,37.0,30.13,NW,320,3.0,12.0,50,0.00,,,0.00,Wunderground v.1.15,2013-05-13 20:34:00,
2013-05-13 16:39:00,55.3,35.9,30.13,West,278,4.0,12.0,48,0.00,,,0.00,Wunderground v.1.15,2013-05-13 20:39:00,
2013-05-13 16:45:00,54.9,35.0,30.13,NW,309,5.0,12.0,47,0.00,,,0.00,Wunderground v.1.15,2013-05-13 20:45:00,
2013-05-13 16:50:00,54.5,36.7,30.13,North,349,6.0,12.0,51,0.00,,,0.00,Wunderground v.1.15,2013-05-13 20:50:00,
2013-05-13 16:55:00,54.3,35.0,30.13,NE,41,5.0,12.0,48,0.00,,,0.00,Wunderground v.1.15,2013-05-13 20:55:00,
2013-05-13 17:00:00,54.2,35.4,30.13,NW,323,4.0,12.0,49,0.00,,,0.00,Wunderground v.1.15,2013-05-13 21:00:00,
2013-05-13 17:06:00,54.7,34.3,30.13,West,273,4.0,12.0,46,0.00,,,0.00,Wunderground v.1.15,2013-05-13 21:06:00,
2013-05-13 17:11:00,55.1,35.2,30.12,North,350,5.0,12.0,47,0.00,,,0.00,Wunderground v.1.15,2013-05-13 21:11:00,
2013-05-13 17:16:00,55.5,35.6,30.12,NNW,333,5.0,12.0,47,0.00,,,0.00,Wunderground v.1.15,2013-05-13 21:16:00,
2013-05-13 17:21:00,54.8,33.8,30.12,NW,307,4.0,12.0,45,0.00,,,0.00,Wunderground v.1.15,2013-05-13 21:21:00,
2013-05-13 17:27:00,53.7,33.4,30.12,NW,311,5.0,12.0,46,0.00,,,0.00,Wunderground v.1.15,2013-05-13 21:27:00,
2013-05-13 17:32:00,53.8,35.1,30.12,NW,319,3.0,12.0,49,0.00,,,0.00,Wunderground v.1.15,2013-05-13 21:32:00,
2013-05-13 17:37:00,54.6,33.7,30.12,WNW,283,4.0,12.0,45,0.00,,,0.00,Wunderground v.1.15,2013-05-13 21:37:00,
2013-05-13 17:43:00,54.6,34.8,30.12,NW,309,5.0,12.0,47,0.00,,,0.00,Wunderground v.1.15,2013-05-13 21:43:00,
2013-05-13 17:48:00,54.3,33.4,30.12,NW,323,4.0,12.0,45,0.00,,,0.00,Wunderground v.1.15,2013-05-13 21:48:00,
2013-05-13 17:53:00,54.2,33.9,30.12,NW,322,6.0,12.0,46,0.00,,,0.00,Wunderground v.1.15,2013-05-13 21:53:00,
2013-05-13 17:58:00,53.9,33.6,30.12,North,5,5.0,12.0,46,0.00,,,0.00,Wunderground v.1.15,2013-05-13 21:58:00,
2013-05-13 18:04:00,53.9,34.1,30.12,NNW,328,4.0,12.0,47,0.00,,,0.00,Wunderground v.1.15,2013-05-13 22:04:00,
2013-05-13 18:09:00,54.3,34.5,30.12,WNW,296,4.0,12.0,47,0.00,,,0.00,Wunderground v.1.15,2013-05-13 22:09:00,
2013-05-13 18:14:00,54.4,33.5,30.12,NNW,336,5.0,12.0,45,0.00,,,0.00,Wunderground v.1.15,2013-05-13 22:14:00,
2013-05-13 18:20:00,53.7,32.8,30.12,NNW,329,6.0,6.0,45,0.00,,,0.00,Wunderground v.1.15,2013-05-13 22:20:00,
2013-05-13 18:25:00,53.3,33.0,30.12,NW,309,5.0,12.0,46,0.00,,,0.00,Wunderground v.1.15,2013-05-13 22:25:00,
2013-05-13 18:30:00,53.2,33.5,30.12,NNW,329,4.0,12.0,47,0.00,,,0.00,Wunderground v.1.15,2013-05-13 22:30:00,
2013-05-13 18:35:00,53.3,33.0,30.12,NNW,334,5.0,12.0,46,0.00,,,0.00,Wunderground v.1.15,2013-05-13 22:35:00,
2013-05-13 18:40:00,53.0,33.8,30.12,NW,324,5.0,12.0,48,0.00,,,0.00,Wunderground v.1.15,2013-05-13 22:40:00,
2013-05-13 18:46:00,53.1,32.8,30.12,NW,318,5.0,12.0,46,0.00,,,0.00,Wunderground v.1.15,2013-05-13 22:46:00,
2013-05-13 18:51:00,53.5,33.2,30.11,WNW,290,3.0,12.0,46,0.00,,,0.00,Wunderground v.1.15,2013-05-13 22:51:00,
2013-05-13 18:56:00,53.9,33.0,30.12,NNW,331,2.0,12.0,45,0.00,,,0.00,Wunderground v.1.15,2013-05-13 22:56:00,
2013-05-13 19:02:00,53.9,33.6,30.11,NW,314,3.0,12.0,46,0.00,,,0.00,Wunderground v.1.15,2013-05-13 23:02:00,
2013-05-13 19:07:00,53.8,33.5,30.12,NNW,330,3.0,12.0,46,0.00,,,0.00,Wunderground v.1.15,2013-05-13 23:07:00,
2013-05-13 19:12:00,53.5,34.3,30.12,North,355,2.0,12.0,48,0.00,,,0.00,Wunderground v.1.15,2013-05-13 23:12:00,
2013-05-13 19:17:00,53.1,32.8,30.12,NNW,340,2.0,12.0,46,0.00,,,0.00,Wunderground v.1.15,2013-05-13 23:17:00,
2013-05-13 19:23:00,52.8,32.6,30.12,NW,325,3.0,12.0,46,0.00,,,0.00,Wunderground v.1.15,2013-05-13 23:23:00,
2013-05-13 19:28:00,52.8,32.6,30.12,NW,308,2.0,12.0,46,0.00,,,0.00,Wunderground v.1.15,2013-05-13 23:28:00,
2013-05-13 19:33:00,52.6,32.4,30.12,NW,304,2.0,12.0,46,0.00,,,0.00,Wunderground v.1.15,2013-05-13 23:33:00,
2013-05-13 19:38:00,52.4,32.7,30.12,NW,322,2.0,12.0,47,0.00,,,0.00,Wunderground v.1.15,2013-05-13 23:38:00,
2013-05-13 19:43:00,52.2,33.1,30.12,NNW,332,1.0,12.0,48,0.00,,,0.00,Wunderground v.1.15,2013-05-13 23:43:00,
2013-05-13 19:49:00,51.8,32.7,30.12,NNW,331,1.0,12.0,48,0.00,,,0.00,Wunderground v.1.15,2013-05-13 23:49:00,
2013-05-13 19:54:00,51.5,33.0,30.12,NNW,332,1.0,12.0,49,0.00,,,0.00,Wunderground v.1.15,2013-05-13 23:54:00,
2013-05-13 19:59:00,51.3,32.8,30.12,NNW,332,0.0,12.0,49,0.00,,,0.00,Wunderground v.1.15,2013-05-13 23:59:00,
2013-05-13 20:04:00,51.1,33.1,30.12,NNW,332,0.0,12.0,50,0.00,,,0.00,Wunderground v.1.15,2013-05-14 00:04:00,
2013-05-13 20:10:00,50.9,32.4,30.12,NNW,331,0.0,12.0,49,0.00,,,0.00,Wunderground v.1.15,2013-05-14 00:10:00,
2013-05-13 20:15:00,50.8,32.3,30.13,NNW,327,1.0,12.0,49,0.00,,,0.00,Wunderground v.1.15,2013-05-14 00:15:00,
2013-05-13 20:20:00,50.6,32.6,30.13,NNW,327,1.0,1.0,50,0.00,,,0.00,Wunderground v.1.15,2013-05-14 00:20:00,
2013-05-13 20:25:00,50.4,32.9,30.13,NNW,329,0.0,12.0,51,0.00,,,0.00,Wunderground v.1.15,2013-05-14 00:25:00,
2013-05-13 20:30:00,50.0,32.6,30.13,NNW,331,0.0,12.0,51,0.00,,,0.00,Wunderground v.1.15,2013-05-14 00:30:00,
2013-05-13 20:36:00,49.6,32.7,30.13,NNW,331,0.0,12.0,52,0.00,,,0.00,Wunderground v.1.15,2013-05-14 00:36:00,
2013-05-13 20:41:00,49.0,33.1,30.13,NNW,331,0.0,12.0,54,0.00,,,0.00,Wunderground v.1.15,2013-05-14 00:41:00,
2013-05-13 20:46:00,48.3,34.2,30.14,NNW,331,0.0,12.0,58,0.00,,,0.00,Wunderground v.1.15,2013-05-14 00:46:00,
2013-05-13 20:51:00,47.7,34.9,30.14,NNW,331,0.0,12.0,61,0.00,,,0.00,Wunderground v.1.15,2013-05-14 00:51:00,
2013-05-13 20:57:00,46.9,34.6,30.14,NNW,331,0.0,12.0,62,0.00,,,0.00,Wunderground v.1.15,2013-05-14 00:57:00,
2013-05-13 21:02:00,46.2,34.3,30.15,NNW,331,0.0,12.0,63,0.00,,,0.00,Wunderground v.1.15,2013-05-14 01:02:00,
2013-05-13 21:07:00,45.5,34.4,30.14,NNW,331,0.0,12.0,65,0.00,,,0.00,Wunderground v.1.15,2013-05-14 01:07:00,
2013-05-13 21:12:00,45.0,34.3,30.15,NNW,331,0.0,12.0,66,0.00,,,0.00,Wunderground v.1.15,2013-05-14 01:12:00,
2013-05-13 21:18:00,44.4,34.5,30.14,NNW,331,0.0,12.0,68,0.00,,,0.00,Wunderground v.1.15,2013-05-14 01:18:00,
2013-05-13 21:23:00,44.0,34.1,30.14,NNW,331,0.0,12.0,68,0.00,,,0.00,Wunderground v.1.15,2013-05-14 01:23:00,
2013-05-13 21:28:00,43.5,34.0,30.15,NNW,331,0.0,12.0,69,0.00,,,0.00,Wunderground v.1.15,2013-05-14 01:28:00,
2013-05-13 21:34:00,42.9,33.8,30.15,NNW,331,0.0,12.0,70,0.00,,,0.00,Wunderground v.1.15,2013-05-14 01:34:00,
2013-05-13 21:39:00,42.5,33.8,30.15,NNW,331,0.0,12.0,71,0.00,,,0.00,Wunderground v.1.15,2013-05-14 01:39:00,
2013-05-13 21:44:00,42.0,33.6,30.15,NNW,331,0.0,12.0,72,0.00,,,0.00,Wunderground v.1.15,2013-05-14 01:44:00,
2013-05-13 21:49:00,41.6,33.6,30.15,NNW,331,0.0,12.0,73,0.00,,,0.00,Wunderground v.1.15,2013-05-14 01:49:00,
2013-05-13 21:55:00,41.2,33.5,30.15,NNW,331,0.0,12.0,74,0.00,,,0.00,Wunderground v.1.15,2013-05-14 01:55:00,
2013-05-13 22:00:00,40.9,33.2,30.15,NNW,331,0.0,12.0,74,0.00,,,0.00,Wunderground v.1.15,2013-05-14 02:00:00,
2013-05-13 22:05:00,40.6,33.3,30.15,NNW,331,0.0,12.0,75,0.00,,,0.00,Wunderground v.1.15,2013-05-14 02:05:00,
2013-05-13 22:11:00,40.2,32.9,30.16,NNW,331,0.0,12.0,75,0.00,,,0.00,Wunderground v.1.15,2013-05-14 02:11:00,
2013-05-13 22:16:00,40.0,33.0,30.15,NNW,331,0.0,12.0,76,0.00,,,0.00,Wunderground v.1.15,2013-05-14 02:16:00,
2013-05-13 22:21:00,39.7,33.1,30.16,NNW,331,0.0,12.0,77,0.00,,,0.00,Wunderground v.1.15,2013-05-14 02:21:00,
2013-05-13 22:27:00,39.3,33.0,30.15,NNW,331,0.0,12.0,78,0.00,,,0.00,Wunderground v.1.15,2013-05-14 02:27:00,
2013-05-13 22:32:00,39.0,33.0,30.16,NNW,331,0.0,12.0,79,0.00,,,0.00,Wunderground v.1.15,2013-05-14 02:32:00,
2013-05-13 22:37:00,38.8,33.2,30.15,NNW,331,0.0,12.0,80,0.00,,,0.00,Wunderground v.1.15,2013-05-14 02:37:00,
2013-05-13 22:42:00,38.6,33.0,30.15,NNW,331,0.0,12.0,80,0.00,,,0.00,Wunderground v.1.15,2013-05-14 02:42:00,
2013-05-13 22:48:00,38.3,33.0,30.15,NNW,331,0.0,12.0,81,0.00,,,0.00,Wunderground v.1.15,2013-05-14 02:48:00,
2013-05-13 22:53:00,38.2,32.9,30.15,NNW,331,0.0,12.0,81,0.00,,,0.00,Wunderground v.1.15,2013-05-14 02:53:00,
2013-05-13 22:58:00,38.0,33.0,30.16,NNW,331,0.0,12.0,82,0.00,,,0.00,Wunderground v.1.15,2013-05-14 02:58:00,
2013-05-13 23:04:00,37.8,32.8,30.15,NNW,331,0.0,12.0,82,0.00,,,0.00,Wunderground v.1.15,2013-05-14 03:04:00,
2013-05-13 23:09:00,37.7,32.7,30.15,NNW,331,0.0,12.0,82,0.00,,,0.00,Wunderground v.1.15,2013-05-14 03:09:00,
2013-05-13 23:14:00,37.6,32.6,30.15,NNW,331,0.0,12.0,82,0.00,,,0.00,Wunderground v.1.15,2013-05-14 03:14:00,
2013-05-13 23:19:00,37.5,32.8,30.15,NNW,331,0.0,12.0,83,0.00,,,0.00,Wunderground v.1.15,2013-05-14 03:19:00,
2013-05-13 23:25:00,37.3,32.6,30.15,NNW,331,0.0,12.0,83,0.00,,,0.00,Wunderground v.1.15,2013-05-14 03:25:00,
2013-05-13 23:30:00,37.2,32.5,30.15,NNW,331,0.0,12.0,83,0.00,,,0.00,Wunderground v.1.15,2013-05-14 03:30:00,
2013-05-13 23:35:00,37.3,32.9,30.14,NNW,331,0.0,12.0,84,0.00,,,0.00,Wunderground v.1.15,2013-05-14 03:35:00,
2013-05-13 23:41:00,37.8,33.7,30.15,NNW,331,0.0,12.0,85,0.00,,,0.00,Wunderground v.1.15,2013-05-14 03:41:00,
2013-05-13 23:46:00,38.0,33.9,30.15,NNW,331,0.0,12.0,85,0.00,,,0.00,Wunderground v.1.15,2013-05-14 03:46:00,
2013-05-13 23:51:00,38.0,33.6,30.15,NNW,331,0.0,12.0,84,0.00,,,0.00,Wunderground v.1.15,2013-05-14 03:51:00,
2013-05-13 23:56:00,38.0,33.6,30.15,NNW,331,0.0,12.0,84,0.00,,,0.00,Wunderground v.1.15,2013-05-14 03:56:00,